Time;durP1;ratioP1;P1;durP2;ratioP2;P2;SDS_P1;SDS_P2;PMS_P1;PMS_P2;Temp;Humidity;BMP_temperature;BMP_pressure;BME280_temperature;BME280_humidity;BME280_pressure;Samples;Min_cycle;Max_cycle;Signal;HPM_P1;HPM_P2
2022/11/11 00:00:40;;;;;;;0.00;0.00;;;;;;;17.43;68.27;102618.25;2093075;28;20556;-65
2022/11/11 00:02:02;;;;;;;0.00;0.00;;;;;;;17.43;68.02;102604.59;2094106;28;20132;-65
2022/11/11 00:03:23;;;;;;;0.00;0.00;;;;;;;17.43;68.06;102612.78;2092171;28;20048;-65
2022/11/11 00:04:47;;;;;;;0.00;0.00;;;;;;;17.43;68.19;102602.69;2093332;28;20488;-65
2022/11/11 00:06:11;;;;;;;0.00;0.00;;;;;;;17.43;68.22;102618.25;2092104;28;20600;-65
2022/11/11 00:07:31;;;;;;;0.00;0.00;;;;;;;17.42;68.11;102617.47;2093125;28;20073;-66
2022/11/11 00:08:52;;;;;;;0.00;0.00;;;;;;;17.42;68.38;102614.75;2092327;28;20045;-65
2022/11/11 00:10:13;;;;;;;0.00;0.00;;;;;;;17.43;68.29;102612.78;2093636;28;20057;-65
2022/11/11 00:11:37;;;;;;;0.00;0.00;;;;;;;17.43;68.04;102610.88;2093936;28;20132;-65
2022/11/11 00:12:59;;;;;;;0.00;0.00;;;;;;;17.43;68.17;102601.88;2094586;28;20110;-65
2022/11/11 00:14:21;;;;;;;0.00;0.00;;;;;;;17.43;68.20;102607.34;2094044;28;20056;-65
2022/11/11 00:15:41;;;;;;;0.00;0.00;;;;;;;17.43;68.21;102612.78;2094249;28;20066;-65
2022/11/11 00:25:23;;;;;;;0.00;0.00;;;;;;;17.40;68.26;102618.94;2093013;28;20102;-65
2022/11/11 00:26:44;;;;;;;0.00;0.00;;;;;;;17.40;68.15;102613.50;2093880;28;20048;-65
2022/11/11 00:28:06;;;;;;;0.00;0.00;;;;;;;17.40;68.15;102618.94;2094350;28;20086;-65
2022/11/11 00:29:26;;;;;;;0.00;0.00;;;;;;;17.40;67.80;102608.84;2085979;28;20098;-65
2022/11/11 00:30:47;;;;;;;0.00;0.00;;;;;;;17.41;68.23;102623.28;2087212;28;20098;-65
2022/11/11 00:32:26;;;;;;;0.00;0.00;;;;;;;17.42;68.04;102613.94;2093259;28;20515;-65
2022/11/11 00:33:48;;;;;;;0.00;0.00;;;;;;;17.39;68.07;102611.91;2092127;28;20049;-65
2022/11/11 00:36:49;;;;;;;0.00;0.00;;;;;;;17.39;68.43;102611.91;2091809;28;20052;-65
2022/11/11 00:38:44;;;;;;;0.00;0.00;;;;;;;17.40;68.22;102608.03;2091246;28;20814;-65
2022/11/11 00:39:53;;;;;;;0.00;0.00;;;;;;;17.37;68.44;102608.72;2091356;28;20555;-65
2022/11/11 00:41:16;;;;;;;0.00;0.00;;;;;;;17.39;68.39;102609.16;2085257;28;20182;-65
2022/11/11 00:42:36;;;;;;;0.00;0.00;;;;;;;17.39;68.70;102606.44;2086834;28;20523;-65
2022/11/11 00:43:58;;;;;;;;;;;;;;;17.24;68.64;102601.66;2092214;28;20091;-65
2022/11/11 00:45:19;;;;;;;0.00;0.00;;;;;;;17.33;68.38;102605.88;2091487;28;19928;-65
2022/11/11 00:51:40;;;;;;;0.00;0.00;;;;;;;17.36;68.45;102601.66;2091787;28;20063;-65
2022/11/11 00:53:03;;;;;;;0.00;0.00;;;;;;;17.37;68.40;102605.97;2091971;28;20950;-65
2022/11/11 00:54:24;;;;;;;0.00;0.00;;;;;;;17.34;68.20;102604.75;2091676;28;20056;-65
2022/11/11 00:55:44;;;;;;;0.00;0.00;;;;;;;17.37;68.22;102604.06;2091573;28;20088;-65
2022/11/11 00:57:05;;;;;;;0.00;0.00;;;;;;;17.36;68.22;102605.19;2092301;28;20102;-65
2022/11/11 00:58:27;;;;;;;0.00;0.00;;;;;;;17.37;68.10;102609.53;2082571;28;20497;-65
2022/11/11 00:59:49;;;;;;;0.00;0.00;;;;;;;17.38;68.24;102599.38;2083182;28;20064;-65
2022/11/11 01:01:09;;;;;;;0.00;0.00;;;;;;;17.38;68.18;102613.81;2082747;28;20049;-65
2022/11/11 01:02:31;;;;;;;0.00;0.00;;;;;;;17.39;68.25;102603.72;2083604;28;20049;-65
2022/11/11 01:03:51;;;;;;;0.00;0.00;;;;;;;17.39;68.47;102612.72;2082901;28;20102;-65
2022/11/11 01:05:12;;;;;;;0.00;0.00;;;;;;;17.38;68.16;102605.63;2083476;28;20128;-65
2022/11/11 01:06:34;;;;;;;0.00;0.00;;;;;;;17.39;68.10;102600.97;2081677;28;20049;-65
2022/11/11 01:07:56;;;;;;;0.00;0.00;;;;;;;17.40;68.14;102602.56;2081943;28;20584;-65
2022/11/11 01:09:18;;;;;;;0.00;0.00;;;;;;;17.40;68.20;102595.19;2082370;28;20092;-65
2022/11/11 01:10:40;;;;;;;0.00;0.00;;;;;;;17.40;68.30;102591.63;2081598;28;20306;-65
2022/11/11 01:12:02;;;;;;;0.00;0.00;;;;;;;17.39;68.46;102598.25;2082970;28;20496;-65
2022/11/11 01:13:25;;;;;;;0.00;0.00;;;;;;;17.41;68.16;102582.31;2083525;28;20053;-65
2022/11/11 01:14:46;;;;;;;0.00;0.00;;;;;;;17.41;68.19;102598.72;2083954;28;20051;-65
2022/11/11 01:16:10;;;;;;;0.00;0.00;;;;;;;17.40;68.19;102597.91;2084171;28;20046;-65
2022/11/11 01:17:32;;;;;;;0.00;0.00;;;;;;;17.40;68.15;102602.56;2084932;28;20061;-65
2022/11/11 01:18:54;;;;;;;0.00;0.00;;;;;;;17.41;67.84;102587.78;2081642;28;20071;-65
2022/11/11 01:20:15;;;;;;;0.00;0.00;;;;;;;17.41;68.07;102598.72;2080312;28;20057;-65
2022/11/11 01:21:36;;;;;;;0.00;0.00;;;;;;;17.40;68.15;102589.72;2081361;28;20049;-65
2022/11/11 01:22:57;;;;;;;0.00;0.00;;;;;;;17.41;68.10;102593.25;2071693;28;20054;-65
2022/11/11 01:24:19;;;;;;;0.00;0.00;;;;;;;17.40;68.14;102594.38;2079776;28;20547;-65
2022/11/11 01:25:41;;;;;;;0.00;0.00;;;;;;;17.42;68.04;102594.84;2083094;28;20064;-65
2022/11/11 01:27:03;;;;;;;0.00;0.00;;;;;;;17.41;67.84;102593.25;2074011;28;20243;-65
2022/11/11 01:28:23;;;;;;;0.00;0.00;;;;;;;17.40;68.41;102589.72;2082574;28;20088;-65
2022/11/11 01:29:45;;;;;;;0.00;0.00;;;;;;;17.40;68.17;102588.91;2082025;28;20049;-65
2022/11/11 01:31:09;;;;;;;0.00;0.00;;;;;;;17.41;68.09;102582.31;2082418;28;20048;-65
2022/11/11 01:32:30;;;;;;;0.00;0.00;;;;;;;17.41;68.18;102598.72;2081809;28;20400;-65
2022/11/11 01:33:51;;;;;;;0.00;0.00;;;;;;;17.42;67.85;102586.63;2082986;28;20056;-65
2022/11/11 01:35:12;;;;;;;0.00;0.00;;;;;;;17.40;68.26;102608.84;2085017;28;20134;-65
2022/11/11 01:36:33;;;;;;;;;;;;;;;17.24;68.29;102609.84;2084877;28;20083;-65
2022/11/11 01:37:53;;;;;;;0.00;0.00;;;;;;;17.35;68.39;102610.97;2077393;28;19970;-65
2022/11/11 01:39:14;;;;;;;;;;;;;;;17.21;68.41;102600.44;2083739;28;20126;-65
2022/11/11 01:40:44;;;;;;;0.00;0.00;;;;;;;17.30;68.29;102603.06;2082122;28;20406;-65
2022/11/11 01:42:06;;;;;;;0.00;0.00;;;;;;;17.32;68.09;102603.47;2084828;28;20415;-65
2022/11/11 01:43:26;;;;;;;0.00;0.00;;;;;;;17.33;68.01;102599.63;2084372;28;20575;-65
2022/11/11 01:44:48;;;;;;;0.00;0.00;;;;;;;17.36;68.09;102607.13;2083244;28;20131;-65
2022/11/11 01:46:20;;;;;;;0.00;0.00;;;;;;;17.36;67.81;102612.59;2083671;28;20081;-65
2022/11/11 01:49:49;;;;;;;0.00;0.00;;;;;;;17.30;68.15;102613.97;2079595;28;20052;-65
2022/11/11 01:51:16;;;;;;;0.00;0.00;;;;;;;17.34;68.27;102609.41;2080702;28;20099;-65
2022/11/11 01:52:39;;;;;;;0.00;0.00;;;;;;;17.31;68.03;102608.16;2083622;28;20048;-65
2022/11/11 01:54:05;;;;;;;0.00;0.00;;;;;;;17.36;68.25;102626.25;2083604;28;20094;-65
2022/11/11 01:55:27;;;;;;;0.00;0.00;;;;;;;17.34;68.13;102615.66;2083492;28;20056;-65
2022/11/11 01:56:53;;;;;;;0.00;0.00;;;;;;;17.37;67.84;102625.09;2083709;28;20893;-65
2022/11/11 01:58:17;;;;;;;0.00;0.00;;;;;;;17.37;68.14;102625.09;2083184;28;21347;-66
2022/11/11 01:59:41;;;;;;;0.00;0.00;;;;;;;17.37;68.45;102633.28;2074615;28;20642;-65
2022/11/11 02:01:02;;;;;;;0.00;0.00;;;;;;;17.37;68.22;102636.81;2078714;28;20130;-65
2022/11/11 02:02:29;;;;;;;0.00;0.00;;;;;;;17.36;68.17;102634.44;2081749;28;20562;-65
2022/11/11 02:05:44;;;;;;;0.00;0.00;;;;;;;17.29;67.89;102626.81;2080876;28;20046;-65
2022/11/11 02:07:08;;;;;;;0.00;0.00;;;;;;;17.36;68.25;102637.16;2082752;28;20056;-65
2022/11/11 02:08:34;;;;;;;0.00;0.00;;;;;;;17.36;68.21;102642.63;2083703;28;20052;-65
2022/11/11 02:09:57;;;;;;;0.00;0.00;;;;;;;17.37;68.34;102647.75;2082571;28;20052;-65
2022/11/11 02:14:34;;;;;;;0.00;0.00;;;;;;;17.37;68.11;102653.22;2081176;28;20060;-65
2022/11/11 02:14:47;;;;;;;0.00;0.00;;;;;;;17.34;68.29;102636.72;2083294;28;20995;-65
2022/11/11 02:16:07;;;;;;;0.00;0.00;;;;;;;17.35;68.08;102627.38;2081660;28;20061;-65
2022/11/11 02:17:31;;;;;;;0.00;0.00;;;;;;;17.32;68.23;102623.41;2082490;28;20465;-65
2022/11/11 02:18:52;;;;;;;0.00;0.00;;;;;;;17.36;68.29;102618.06;2083694;28;20435;-65
2022/11/11 02:20:17;;;;;;;0.00;0.00;;;;;;;17.37;68.26;102633.28;2082205;28;20060;-65
2022/11/11 02:21:44;;;;;;;0.00;0.00;;;;;;;17.37;68.00;102633.28;2081974;28;20515;-65
2022/11/11 02:23:10;;;;;;;0.00;0.00;;;;;;;17.36;68.12;102637.16;2082939;28;20060;-65
2022/11/11 02:24:32;;;;;;;0.00;0.00;;;;;;;17.36;68.21;102634.44;2083325;28;20050;-65
2022/11/11 02:25:56;;;;;;;0.00;0.00;;;;;;;17.36;68.16;102629.75;2081775;28;20481;-65
2022/11/11 02:27:18;;;;;;;0.00;0.00;;;;;;;17.37;68.11;102619.63;2083939;28;20106;-65
2022/11/11 02:28:41;;;;;;;0.00;0.00;;;;;;;17.36;67.92;102621.56;2082139;28;20041;-65
2022/11/11 02:30:06;;;;;;;0.00;0.00;;;;;;;17.37;68.08;102622.38;2083404;28;20056;-65
2022/11/11 02:31:27;;;;;;;0.00;0.00;;;;;;;17.38;68.08;102621.22;2082941;28;20523;-65
2022/11/11 02:32:51;;;;;;;0.00;0.00;;;;;;;17.37;68.01;102614.19;2080992;28;20083;-65
2022/11/11 02:34:12;;;;;;;0.00;0.00;;;;;;;17.35;68.29;102613.72;2082918;28;20057;-65
2022/11/11 02:35:36;;;;;;;0.00;0.00;;;;;;;17.38;68.13;102615.75;2083762;28;20557;-65
2022/11/11 02:36:58;;;;;;;0.00;0.00;;;;;;;17.38;67.96;102629.41;2081787;28;20065;-65
2022/11/11 02:38:19;;;;;;;0.00;0.00;;;;;;;17.38;68.07;102621.22;2082624;28;20214;-65
2022/11/11 02:39:47;;;;;;;0.00;0.00;;;;;;;17.38;68.06;102621.22;2082130;28;20084;-65
2022/11/11 02:43:18;;;;;;;0.00;0.00;;;;;;;17.33;67.95;102613.28;2051555;28;20094;-65
2022/11/11 02:44:38;;;;;;;0.00;0.00;;;;;;;17.35;68.15;102600.88;2052552;28;20764;-65
2022/11/11 02:46:01;;;;;;;;;;;;;;;17.20;68.55;102606.22;2050184;28;20053;-65
2022/11/11 02:47:22;;;;;;;0.00;0.00;;;;;;;17.29;68.27;102615.09;2052192;28;19937;-65
2022/11/11 02:48:43;;;;;;;0.00;0.00;;;;;;;17.31;68.09;102610.09;2064159;28;20064;-65
2022/11/11 02:50:05;;;;;;;0.00;0.00;;;;;;;17.34;68.10;102614.88;2081988;28;20052;-65
2022/11/11 02:51:26;;;;;;;0.00;0.00;;;;;;;17.33;68.21;102603.13;2080631;28;20072;-65
2022/11/11 02:52:47;;;;;;;0.00;0.00;;;;;;;17.34;68.20;102609.41;2083814;28;20041;-65
2022/11/11 02:54:08;;;;;;;0.00;0.00;;;;;;;17.34;68.32;102612.13;2081549;28;20459;-65
2022/11/11 02:55:31;;;;;;;0.00;0.00;;;;;;;17.34;68.19;102598.47;2085171;28;20080;-65
2022/11/11 02:57:07;;;;;;;0.00;0.00;;;;;;;17.37;68.00;102608.72;2082992;28;21132;-65
2022/11/11 02:58:28;;;;;;;0.00;0.00;;;;;;;17.34;68.22;102612.13;2079871;28;20052;-65
2022/11/11 02:59:48;;;;;;;0.00;0.00;;;;;;;17.34;68.26;102610.22;2082555;28;20107;-65
2022/11/11 03:01:10;;;;;;;0.00;0.00;;;;;;;17.36;68.10;102618.81;2082669;28;20072;-65
2022/11/11 03:02:31;;;;;;;0.00;0.00;;;;;;;17.37;67.90;102600.53;2082394;28;20123;-65
2022/11/11 03:03:53;;;;;;;0.00;0.00;;;;;;;17.37;68.36;102611.44;2083298;28;20072;-65
2022/11/11 03:05:15;;;;;;;0.00;0.00;;;;;;;17.36;67.99;102618.81;2084117;28;20061;-65
2022/11/11 03:06:35;;;;;;;0.00;0.00;;;;;;;17.37;68.08;102611.44;2084193;28;20086;-65
2022/11/11 03:07:56;;;;;;;0.00;0.00;;;;;;;17.37;68.09;102611.44;2075668;28;20650;-65
2022/11/11 03:09:17;;;;;;;0.00;0.00;;;;;;;17.37;68.08;102614.19;2085340;28;20049;-65
2022/11/11 03:10:40;;;;;;;0.00;0.00;;;;;;;17.37;68.05;102614.19;2084157;28;20096;-65
2022/11/11 03:12:01;;;;;;;0.00;0.00;;;;;;;17.37;68.18;102611.44;2082381;28;20084;-65
2022/11/11 03:13:23;;;;;;;0.00;0.00;;;;;;;17.37;68.10;102619.63;2083884;28;20535;-65
2022/11/11 03:14:44;;;;;;;0.00;0.00;;;;;;;17.38;67.97;102613.03;2083294;28;20509;-65
2022/11/11 03:17:37;;;;;;;0.00;0.00;;;;;;;17.36;68.04;102607.91;2085413;28;20051;-65
2022/11/11 03:17:46;;;;;;;0.00;0.00;;;;;;;17.36;68.02;102618.06;2083568;28;20052;-65
2022/11/11 03:19:07;;;;;;;0.00;0.00;;;;;;;17.37;68.11;102616.91;2077884;28;20056;-65
2022/11/11 03:22:07;;;;;;;0.00;0.00;;;;;;;17.34;68.12;102621.13;2076624;28;20085;-65
2022/11/11 03:23:48;;;;;;;0.00;0.00;;;;;;;17.34;67.98;102620.31;2086504;28;20136;-65
2022/11/11 03:26:50;;;;;;;0.00;0.00;;;;;;;17.34;67.96;102623.84;2084276;28;20188;-65
2022/11/11 03:28:12;;;;;;;0.00;0.00;;;;;;;17.34;68.06;102626.59;2083685;28;20048;-65
2022/11/11 03:29:34;;;;;;;0.00;0.00;;;;;;;17.34;68.16;102626.59;2083527;28;20056;-65
2022/11/11 03:31:01;;;;;;;0.00;0.00;;;;;;;17.36;68.20;102628.97;2082398;28;20594;-65
2022/11/11 03:32:25;;;;;;;0.00;0.00;;;;;;;17.35;68.08;102622.72;2084209;28;20123;-65
2022/11/11 03:33:45;;;;;;;0.00;0.00;;;;;;;17.36;68.11;102640.66;2084221;28;20049;-65
2022/11/11 03:35:07;;;;;;;0.00;0.00;;;;;;;17.35;68.06;102616.44;2082676;28;20378;-65
2022/11/11 03:38:14;;;;;;;0.00;0.00;;;;;;;17.36;68.23;102620.78;2083180;28;20140;-65
2022/11/11 03:38:22;;;;;;;0.00;0.00;;;;;;;17.33;68.01;102618.75;2083142;28;20568;-65
2022/11/11 03:39:43;;;;;;;0.00;0.00;;;;;;;17.33;68.08;102627.72;2084007;28;20057;-65
2022/11/11 03:41:04;;;;;;;;;;;;;;;17.19;68.24;102623.72;2084622;28;20059;-65
2022/11/11 03:42:26;;;;;;;0.00;0.00;;;;;;;17.29;68.10;102613.16;2084323;28;19974;-65
2022/11/11 03:43:47;;;;;;;0.00;0.00;;;;;;;17.31;67.89;102621.81;2085694;28;20053;-65
2022/11/11 03:45:08;;;;;;;0.00;0.00;;;;;;;17.32;67.99;102628.84;2080202;28;20100;-65
2022/11/11 03:46:29;;;;;;;0.00;0.00;;;;;;;17.32;68.02;102623.41;2086216;28;20463;-65
2022/11/11 03:47:50;;;;;;;0.00;0.00;;;;;;;17.33;68.00;102624.19;2084443;28;20091;-65
2022/11/11 03:49:11;;;;;;;;;;;;;;;17.19;68.24;102634.66;2084412;28;20254;-65
2022/11/11 03:50:32;;;;;;;0.00;0.00;;;;;;;17.28;68.04;102624.44;2083630;28;19986;-65
2022/11/11 03:51:53;;;;;;;0.00;0.00;;;;;;;17.30;68.15;102631.13;2083425;28;20080;-65
2022/11/11 03:53:15;;;;;;;0.00;0.00;;;;;;;17.31;68.07;102640.13;2078028;28;20059;-65
2022/11/11 03:54:36;;;;;;;0.00;0.00;;;;;;;17.32;68.23;102638.97;2084346;28;20126;-65
2022/11/11 03:55:56;;;;;;;0.00;0.00;;;;;;;17.32;68.18;102628.06;2078367;28;20045;-65
2022/11/11 03:57:32;;;;;;;0.00;0.00;;;;;;;17.32;68.06;102628.84;2077017;28;20059;-64
2022/11/11 03:58:54;;;;;;;0.00;0.00;;;;;;;17.32;67.87;102633.50;2085252;28;20053;-64
2022/11/11 04:00:17;;;;;;;0.00;0.00;;;;;;;17.33;68.00;102635.13;2088879;28;20424;-65
2022/11/11 04:11:39;;;;;;;0.00;0.00;;;;;;;17.29;68.29;102623.28;2093507;28;20051;-65
2022/11/11 04:16:20;;;;;;;;;;;;;;;17.13;68.29;102628.63;2091681;28;20121;-65
2022/11/11 04:17:41;;;;;;;0.00;0.00;;;;;;;17.23;68.38;102627.38;2092335;28;20936;-64
2022/11/11 04:22:22;;;;;;;0.00;0.00;;;;;;;17.24;67.99;102628.97;2093994;28;20059;-64
2022/11/11 04:23:42;;;;;;;0.00;0.00;;;;;;;17.26;68.25;102618.50;2094118;28;20056;-65
2022/11/11 04:26:42;;;;;;;0.00;0.00;;;;;;;17.26;68.00;102630.22;2091468;28;20052;-65
2022/11/11 04:29:46;;;;;;;0.00;0.00;;;;;;;17.28;68.23;102635.34;2093675;28;20055;-65
2022/11/11 04:31:06;;;;;;;0.00;0.00;;;;;;;17.27;68.19;102626.34;2094089;28;20134;-65
2022/11/11 04:32:37;;;;;;;0.00;0.00;;;;;;;17.28;68.17;102618.97;2094030;28;20633;-65
2022/11/11 04:34:00;;;;;;;0.00;0.00;;;;;;;17.27;68.20;102626.34;2091812;28;20061;-65
2022/11/11 04:35:22;;;;;;;0.00;0.00;;;;;;;17.29;68.06;102626.00;2092873;28;20052;-65
2022/11/11 04:36:44;;;;;;;0.00;0.00;;;;;;;17.29;68.17;102623.28;2094020;28;20054;-65
2022/11/11 04:41:24;;;;;;;0.00;0.00;;;;;;;17.28;68.20;102622.47;2093638;28;20063;-64
2022/11/11 04:43:01;;;;;;;0.00;0.00;;;;;;;17.27;67.79;102615.44;2085698;28;20552;-65
2022/11/11 04:46:02;;;;;;;0.00;0.00;;;;;;;17.28;68.18;102617.00;2092686;28;20179;-65
2022/11/11 04:47:23;;;;;;;0.00;0.00;;;;;;;17.30;68.06;102624.88;2093240;28;20125;-65
2022/11/11 04:48:44;;;;;;;0.00;0.00;;;;;;;17.29;67.92;102613.16;2092398;28;20407;-65
2022/11/11 04:50:06;;;;;;;0.00;0.00;;;;;;;17.30;68.11;102624.88;2093004;28;20062;-65
2022/11/11 04:52:25;;;;;;;0.00;0.00;;;;;;;17.30;68.05;102630.34;2093321;28;20412;-65
2022/11/11 04:53:11;;;;;;;0.00;0.00;;;;;;;17.28;68.17;102635.34;2093557;28;20123;-64
2022/11/11 04:56:46;;;;;;;0.00;0.00;;;;;;;17.29;68.11;102636.94;2092920;28;20135;-65
2022/11/11 04:57:52;;;;;;;0.00;0.00;;;;;;;17.27;68.18;102642.72;2092354;28;20569;-65
2022/11/11 04:59:15;;;;;;;0.00;0.00;;;;;;;17.29;67.88;102636.94;2093228;28;20127;-65
2022/11/11 05:00:36;;;;;;;0.00;0.00;;;;;;;17.29;68.04;102643.19;2091937;28;20052;-65
2022/11/11 05:03:37;;;;;;;0.00;0.00;;;;;;;17.27;68.05;102648.19;2090999;28;20507;-65
2022/11/11 05:04:59;;;;;;;0.00;0.00;;;;;;;17.28;67.85;102641.59;2091920;28;20508;-65
2022/11/11 05:09:38;;;;;;;0.00;0.00;;;;;;;17.25;68.31;102641.50;2092680;28;20458;-65
2022/11/11 05:10:58;;;;;;;0.00;0.00;;;;;;;17.28;68.07;102649.78;2092679;28;20054;-64
2022/11/11 05:12:19;;;;;;;0.00;0.00;;;;;;;17.29;68.04;102656.03;2093861;28;20059;-64
2022/11/11 05:22:07;;;;;;;0.00;0.00;;;;;;;17.24;68.23;102653.53;2092075;28;20045;-64
2022/11/11 05:25:24;;;;;;;0.00;0.00;;;;;;;17.25;68.31;102655.91;2092487;28;20094;-64
2022/11/11 05:25:24;;;;;;;0.00;0.00;;;;;;;17.21;67.89;102644.09;2091110;28;20118;-64
2022/11/11 05:26:45;;;;;;;0.00;0.00;;;;;;;17.23;68.11;102652.75;2091774;28;20419;-64
2022/11/11 05:28:06;;;;;;;0.00;0.00;;;;;;;17.26;68.15;102651.25;2092620;28;20056;-64
2022/11/11 05:29:27;;;;;;;0.00;0.00;;;;;;;17.26;68.01;102651.25;2090029;28;20114;-64
2022/11/11 05:30:48;;;;;;;0.00;0.00;;;;;;;17.26;68.23;102652.06;2091266;28;20075;-64
2022/11/11 05:32:09;;;;;;;0.00;0.00;;;;;;;17.28;68.06;102646.28;2092478;28;20051;-64
2022/11/11 05:33:31;;;;;;;0.00;0.00;;;;;;;17.27;68.02;102641.94;2094296;28;20412;-66
2022/11/11 05:34:53;;;;;;;0.00;0.00;;;;;;;17.28;68.11;102657.97;2090970;28;20088;-64
2022/11/11 05:36:13;;;;;;;0.00;0.00;;;;;;;17.28;68.01;102659.91;2092351;28;20373;-64
2022/11/11 05:37:34;;;;;;;0.00;0.00;;;;;;;17.27;68.05;102647.38;2092779;28;20056;-64
2022/11/11 05:38:54;;;;;;;0.00;0.00;;;;;;;17.28;68.07;102649.78;2090074;28;20048;-64
2022/11/11 05:40:16;;;;;;;0.00;0.00;;;;;;;17.26;67.98;102656.72;2093117;28;20932;-64
2022/11/11 05:41:36;;;;;;;0.00;0.00;;;;;;;17.28;67.82;102654.47;2092823;28;20056;-64
2022/11/11 05:42:57;;;;;;;0.00;0.00;;;;;;;17.28;68.09;102659.91;2093027;28;20127;-64
2022/11/11 05:44:19;;;;;;;0.00;0.00;;;;;;;17.29;68.04;102661.50;2092803;28;20102;-64
2022/11/11 05:45:40;;;;;;;0.00;0.00;;;;;;;17.30;68.16;102657.66;2091155;28;20068;-64
2022/11/11 05:47:01;;;;;;;0.00;0.00;;;;;;;17.29;68.08;102665.03;2091275;28;21317;-64
2022/11/11 05:48:23;;;;;;;0.00;0.00;;;;;;;17.30;68.03;102657.66;2092256;28;20628;-64
2022/11/11 05:49:44;;;;;;;0.00;0.00;;;;;;;17.29;68.15;102667.78;2092005;28;20068;-65
2022/11/11 05:51:26;;;;;;;0.00;0.00;;;;;;;17.29;68.27;102666.97;2092344;28;20056;-65
2022/11/11 05:52:48;;;;;;;0.00;0.00;;;;;;;17.28;67.74;102659.91;2091978;28;20778;-65
2022/11/11 05:54:10;;;;;;;0.00;0.00;;;;;;;17.29;67.82;102664.22;2091772;28;20047;-65
2022/11/11 05:55:31;;;;;;;0.00;0.00;;;;;;;17.29;67.80;102650.59;2092593;28;20045;-65
2022/11/11 05:56:52;;;;;;;0.00;0.00;;;;;;;17.30;68.04;102657.66;2093129;28;20472;-64
2022/11/11 05:58:14;;;;;;;0.00;0.00;;;;;;;17.30;67.98;102657.66;2092241;28;20078;-64
2022/11/11 05:59:35;;;;;;;0.00;0.00;;;;;;;17.30;68.11;102669.34;2093009;28;20056;-65
2022/11/11 06:00:56;;;;;;;0.00;0.00;;;;;;;17.30;68.22;102669.34;2085974;28;20448;-65
2022/11/11 06:02:17;;;;;;;0.00;0.00;;;;;;;17.29;67.78;102664.22;2086865;28;20132;-65
2022/11/11 06:03:39;;;;;;;0.00;0.00;;;;;;;17.31;67.81;102659.22;2090228;28;20106;-64
2022/11/11 06:05:00;;;;;;;0.00;0.00;;;;;;;17.30;67.68;102663.13;2091786;28;20499;-64
2022/11/11 06:06:22;;;;;;;0.00;0.00;;;;;;;17.30;67.99;102672.09;2090977;28;20048;-65
2022/11/11 06:07:43;;;;;;;0.00;0.00;;;;;;;17.31;67.79;102664.69;2091168;28;20071;-65
2022/11/11 06:09:04;;;;;;;0.00;0.00;;;;;;;17.29;67.82;102661.50;2092768;28;20051;-65
2022/11/11 06:10:31;;;;;;;0.00;0.00;;;;;;;17.32;68.11;102674.47;2092397;28;20392;-65
2022/11/11 06:11:52;;;;;;;0.00;0.00;;;;;;;17.29;67.91;102678.69;2091952;28;20090;-65
2022/11/11 06:13:14;;;;;;;0.00;0.00;;;;;;;17.31;67.91;102686.53;2091686;28;20072;-65
2022/11/11 06:14:35;;;;;;;0.00;0.00;;;;;;;17.31;67.88;102667.44;2090607;28;20490;-65
2022/11/11 06:15:56;;;;;;;0.00;0.00;;;;;;;17.31;67.85;102678.34;2091558;28;20052;-65
2022/11/11 06:17:17;;;;;;;0.00;0.00;;;;;;;17.32;68.08;102682.66;2092376;28;20139;-65
2022/11/11 06:18:39;;;;;;;0.00;0.00;;;;;;;17.32;67.83;102677.19;2084293;28;20076;-65
2022/11/11 06:20:01;;;;;;;0.00;0.00;;;;;;;17.31;68.01;102692.00;2087435;28;20052;-64
2022/11/11 06:21:22;;;;;;;0.00;0.00;;;;;;;17.30;68.16;102684.97;2092997;28;20099;-64
2022/11/11 06:24:19;;;;;;;0.00;0.00;;;;;;;17.29;67.88;102686.06;2090359;28;20080;-64
2022/11/11 06:27:25;;;;;;;0.00;0.00;;;;;;;17.28;67.80;102688.00;2091043;28;20051;-65
2022/11/11 06:28:49;;;;;;;0.00;0.00;;;;;;;17.30;67.68;102687.69;2092082;28;20052;-65
2022/11/11 06:30:10;;;;;;;0.00;0.00;;;;;;;17.30;67.90;102696.66;2091632;28;20526;-64
2022/11/11 06:31:51;;;;;;;0.00;0.00;;;;;;;17.28;67.61;102700.88;2092199;28;20052;-65
2022/11/11 06:33:11;;;;;;;0.00;0.00;;;;;;;17.30;67.57;102701.34;2090990;28;20079;-65
2022/11/11 06:34:34;;;;;;;0.00;0.00;;;;;;;17.30;67.94;102706.78;2090417;28;20140;-65
2022/11/11 06:35:54;;;;;;;0.00;0.00;;;;;;;17.28;67.88;102704.38;2090981;28;20051;-64
2022/11/11 06:37:15;;;;;;;0.00;0.00;;;;;;;17.28;67.74;102709.84;2092431;28;20495;-65
2022/11/11 06:38:36;;;;;;;0.00;0.00;;;;;;;17.29;68.00;102705.19;2092825;28;20054;-65
2022/11/11 06:39:57;;;;;;;0.00;0.00;;;;;;;17.30;67.84;102717.72;2093090;28;20064;-64
2022/11/11 06:41:18;;;;;;;0.00;0.00;;;;;;;17.29;67.84;102711.44;2092449;28;20144;-65
2022/11/11 06:42:39;;;;;;;0.00;0.00;;;;;;;17.29;67.91;102716.09;2091726;28;20475;-65
2022/11/11 06:44:01;;;;;;;0.00;0.00;;;;;;;17.29;67.88;102716.91;2091386;28;21416;-64
2022/11/11 06:45:22;;;;;;;0.00;0.00;;;;;;;17.30;67.91;102717.72;2092505;28;20056;-65
2022/11/11 06:46:44;;;;;;;0.00;0.00;;;;;;;17.30;68.03;102723.19;2094258;28;20140;-65
2022/11/11 06:48:05;;;;;;;0.00;0.00;;;;;;;17.30;67.88;102717.72;2092448;28;20079;-65
2022/11/11 06:49:27;;;;;;;0.00;0.00;;;;;;;17.30;68.05;102717.72;2092693;28;20076;-65
2022/11/11 06:50:49;;;;;;;0.00;0.00;;;;;;;17.31;67.47;102725.56;2093830;28;20163;-65
2022/11/11 06:52:11;;;;;;;0.00;0.00;;;;;;;17.29;67.69;102716.91;2093763;28;20094;-65
2022/11/11 06:53:32;;;;;;;0.00;0.00;;;;;;;17.31;68.12;102722.03;2092175;28;20511;-65
2022/11/11 06:54:52;;;;;;;0.00;0.00;;;;;;;17.30;67.80;102717.72;2092229;28;20051;-65
2022/11/11 06:56:14;;;;;;;0.00;0.00;;;;;;;17.30;67.83;102723.94;2093876;28;20056;-65
2022/11/11 06:57:35;;;;;;;0.00;0.00;;;;;;;17.30;68.09;102706.78;2092587;28;20063;-65
2022/11/11 06:58:56;;;;;;;0.00;0.00;;;;;;;17.30;68.00;102720.44;2094120;28;20072;-64
2022/11/11 07:00:18;;;;;;;0.00;0.00;;;;;;;17.31;67.93;102724.75;2094194;28;20052;-65
2022/11/11 07:01:40;;;;;;;0.00;0.00;;;;;;;17.28;67.74;102719.97;2094532;28;20500;-65
2022/11/11 07:03:01;;;;;;;0.00;0.00;;;;;;;17.31;67.78;102732.94;2094440;28;20492;-64
2022/11/11 07:04:22;;;;;;;0.00;0.00;;;;;;;17.30;67.86;102740.34;2092276;28;20459;-65
2022/11/11 07:05:43;;;;;;;0.00;0.00;;;;;;;17.31;67.82;102739.22;2092439;28;20580;-65
2022/11/11 07:07:06;;;;;;;0.00;0.00;;;;;;;17.31;67.68;102738.41;2094641;28;20638;-65
2022/11/11 07:08:27;;;;;;;0.00;0.00;;;;;;;17.31;67.68;102738.41;2093658;28;20385;-64
2022/11/11 07:09:49;;;;;;;0.00;0.00;;;;;;;17.31;67.88;102746.59;2092893;28;20462;-65
2022/11/11 07:11:11;;;;;;;0.00;0.00;;;;;;;17.31;67.79;102752.06;2093696;28;20375;-65
2022/11/11 07:12:40;;;;;;;0.00;0.00;;;;;;;17.31;67.90;102754.78;2094190;28;20131;-65
2022/11/11 07:14:01;;;;;;;0.00;0.00;;;;;;;17.31;67.91;102752.06;2094369;28;20054;-65
2022/11/11 07:15:22;;;;;;;0.00;0.00;;;;;;;17.31;67.88;102757.53;2092540;28;20527;-64
2022/11/11 07:16:43;;;;;;;0.00;0.00;;;;;;;17.30;67.71;102754.00;2092601;28;20570;-65
2022/11/11 07:18:05;;;;;;;0.00;0.00;;;;;;;17.30;67.84;102750.47;2092807;28;20086;-65
2022/11/11 07:19:26;;;;;;;0.00;0.00;;;;;;;17.30;67.84;102751.25;2092953;28;20056;-65
2022/11/11 07:20:48;;;;;;;0.00;0.00;;;;;;;17.31;67.74;102757.53;2092198;28;20103;-65
2022/11/11 07:22:10;;;;;;;0.00;0.00;;;;;;;17.32;67.53;102765.38;2094412;28;20074;-65
2022/11/11 07:23:32;;;;;;;0.00;0.00;;;;;;;17.30;67.82;102750.47;2092245;28;20052;-65
2022/11/11 07:24:52;;;;;;;0.00;0.00;;;;;;;17.31;67.67;102758.31;2091798;28;20083;-65
2022/11/11 07:26:13;;;;;;;0.00;0.00;;;;;;;17.31;67.82;102771.97;2092813;28;20563;-65
2022/11/11 07:27:37;;;;;;;0.00;0.00;;;;;;;17.31;67.79;102771.19;2093440;28;20095;-65
2022/11/11 07:28:58;;;;;;;0.00;0.00;;;;;;;17.31;67.76;102774.72;2093659;28;20055;-64
2022/11/11 07:30:19;;;;;;;0.00;0.00;;;;;;;17.31;67.67;102780.16;2093866;28;20424;-65
2022/11/11 07:31:40;;;;;;;0.00;0.00;;;;;;;17.31;67.78;102777.44;2093369;28;20633;-65
2022/11/11 07:33:02;;;;;;;0.00;0.00;;;;;;;17.31;67.91;102776.63;2093023;28;20049;-65
2022/11/11 07:34:23;;;;;;;0.00;0.00;;;;;;;17.31;67.78;102774.72;2093330;28;20051;-65
2022/11/11 07:35:44;;;;;;;0.00;0.00;;;;;;;17.31;67.88;102785.63;2093051;28;20132;-65